Time;durP1;ratioP1;P1;durP2;ratioP2;P2;SDS_P1;SDS_P2;PMS_P1;PMS_P2;Temp;Humidity;BMP_temperature;BMP_pressure;BME280_temperature;BME280_humidity;BME280_pressure;Samples;Min_cycle;Max_cycle;Signal;HPM_P1;HPM_P2
2021/06/30 00:00:38;;;;;;;9.75;5.12;;;;;;;18.26;82.72;100307.63;1722434;83;21654;-58
2021/06/30 00:03:43;;;;;;;11.90;5.25;;;;;;;18.30;82.50;100313.87;1720401;83;21361;-60
2021/06/30 00:06:49;;;;;;;9.75;4.87;;;;;;;18.34;82.37;100308.20;1722657;83;21385;-59
2021/06/30 00:09:56;;;;;;;10.45;5.37;;;;;;;18.38;82.27;100313.61;1720583;83;21860;-59
2021/06/30 00:13:05;;;;;;;9.60;5.25;;;;;;;18.42;82.18;100312.09;1722676;83;21216;-60
2021/06/30 00:16:11;;;;;;;11.00;4.87;;;;;;;18.45;82.15;100310.78;1720500;83;21401;-59
2021/06/30 00:19:18;;;;;;;7.80;5.15;;;;;;;18.43;82.28;100309.62;1722781;83;21192;-59
2021/06/30 00:22:23;;;;;;;12.70;5.78;;;;;;;18.46;82.34;100309.69;1720465;83;21876;-60
2021/06/30 00:25:31;;;;;;;8.63;5.15;;;;;;;18.42;82.34;100303.78;1722768;83;21236;-59
2021/06/30 00:28:39;;;;;;;13.10;6.05;;;;;;;18.40;82.47;100308.70;1720442;83;21358;-59
2021/06/30 00:31:44;;;;;;;8.03;5.22;;;;;;;18.38;82.71;100303.91;1722571;83;21393;-59
2021/06/30 00:34:49;;;;;;;13.03;5.12;;;;;;;18.37;83.09;100310.51;1702281;83;21270;-59
2021/06/30 00:37:56;;;;;;;9.88;5.15;;;;;;;18.37;83.24;100307.73;1722518;83;21346;-58
2021/06/30 00:41:01;;;;;;;8.43;5.67;;;;;;;18.37;83.27;100307.73;1720895;83;21437;-58
2021/06/30 00:44:06;;;;;;;9.13;5.85;;;;;;;18.36;83.22;100318.49;1722540;83;21362;-60
2021/06/30 00:47:11;;;;;;;12.23;5.60;;;;;;;18.36;83.23;100315.72;1720278;83;21371;-58
2021/06/30 00:50:19;;;;;;;14.20;6.30;;;;;;;18.38;83.13;100320.55;1722299;83;21251;-58
2021/06/30 00:53:25;;;;;;;8.70;5.28;;;;;;;18.40;82.97;100310.08;1720351;83;21335;-59
2021/06/30 00:56:32;;;;;;;15.83;6.28;;;;;;;18.40;82.79;100313.38;1722742;83;21367;-59
2021/06/30 00:59:38;;;;;;;13.80;5.47;;;;;;;18.42;82.64;100316.78;1720437;83;21357;-59
2021/06/30 01:02:45;;;;;;;12.60;5.97;;;;;;;18.41;82.42;100318.70;1722324;82;21207;-59
2021/06/30 01:05:50;;;;;;;7.85;5.60;;;;;;;18.40;82.26;100317.02;1702130;83;21262;-58
2021/06/30 01:09:03;;;;;;;11.03;6.10;;;;;;;18.38;82.19;100316.38;1722394;81;21552;-59
2021/06/30 01:12:06;;;;;;;9.58;5.10;;;;;;;18.35;82.17;100314.04;1720754;83;21262;-60
2021/06/30 01:15:16;;;;;;;9.20;5.97;;;;;;;18.32;82.22;100315.02;1722149;83;21256;-60
2021/06/30 01:18:22;;;;;;;10.90;6.05;;;;;;;18.23;82.21;100312.24;1720777;83;21358;-60
2021/06/30 01:21:28;;;;;;;12.70;6.12;;;;;;;18.17;82.40;100315.36;1722690;82;21361;-60
2021/06/30 01:24:34;;;;;;;10.10;6.75;;;;;;;18.11;82.42;100316.84;1720575;83;21220;-58
2021/06/30 01:27:41;;;;;;;11.80;6.60;;;;;;;18.04;82.73;100319.66;1722999;83;21690;-59
2021/06/30 01:30:47;;;;;;;12.03;5.80;;;;;;;18.02;82.95;100319.03;1720802;83;21373;-59
2021/06/30 01:33:54;;;;;;;10.40;5.80;;;;;;;18.01;83.10;100311.80;1722980;83;21259;-59
2021/06/30 01:37:02;;;;;;;13.88;6.25;;;;;;;18.01;83.09;100311.80;1720774;83;21215;-58
2021/06/30 01:40:07;;;;;;;8.40;5.62;;;;;;;18.01;83.06;100318.73;1722623;83;21369;-58
2021/06/30 01:43:12;;;;;;;10.25;6.10;;;;;;;18.00;83.19;100318.95;1722834;83;21378;-59
2021/06/30 01:46:17;;;;;;;14.20;7.50;;;;;;;17.98;83.25;100322.48;1722453;83;21429;-59
2021/06/30 01:49:22;;;;;;;19.32;7.83;;;;;;;17.95;83.33;100322.37;1720682;83;21394;-59
2021/06/30 01:52:29;;;;;;;11.38;7.58;;;;;;;17.92;83.37;100331.69;1722979;83;21287;-58
2021/06/30 01:55:35;;;;;;;11.70;7.45;;;;;;;17.88;83.45;100327.12;1698621;83;21385;-58
2021/06/30 01:58:41;;;;;;;8.78;7.15;;;;;;;17.87;83.58;100332.34;1720561;81;21378;-58
2021/06/30 02:01:47;;;;;;;17.82;7.47;;;;;;;17.84;83.65;100330.88;1722545;83;21291;-58
2021/06/30 02:04:57;;;;;;;13.50;7.08;;;;;;;17.82;83.59;100329.42;1720829;83;21271;-58
2021/06/30 02:08:05;;;;;;;12.28;6.70;;;;;;;17.81;83.58;100322.16;1722693;83;21990;-59
2021/06/30 02:11:13;;;;;;;9.08;6.62;;;;;;;17.79;83.65;100325.16;1719561;83;21227;-60
2021/06/30 02:14:20;;;;;;;11.70;7.20;;;;;;;17.76;83.44;100324.22;1722163;83;21393;-59
2021/06/30 02:17:27;;;;;;;12.60;7.22;;;;;;;17.73;83.53;100327.97;1719906;83;21212;-58
2021/06/30 02:20:32;;;;;;;12.35;7.17;;;;;;;17.71;83.84;100327.37;1722625;83;21235;-58
2021/06/30 02:23:38;;;;;;;10.20;6.15;;;;;;;17.73;84.07;100332.13;1720529;83;21248;-59
2021/06/30 02:26:43;;;;;;;11.95;6.83;;;;;;;17.76;84.12;100326.13;1722761;83;21386;-59
2021/06/30 02:29:50;;;;;;;15.40;7.25;;;;;;;17.78;84.00;100339.23;1720399;83;21421;-59
2021/06/30 02:33:01;;;;;;;10.35;7.42;;;;;;;17.80;84.08;100343.48;1698201;83;21209;-58
2021/06/30 02:36:06;;;;;;;11.60;7.78;;;;;;;17.82;84.03;100339.11;1720314;83;21208;-58
2021/06/30 02:39:13;;;;;;;14.18;7.30;;;;;;;17.83;84.01;100342.19;1722921;83;21389;-58
2021/06/30 02:42:19;;;;;;;10.63;7.03;;;;;;;17.89;84.04;100339.89;1720349;83;21216;-58
2021/06/30 02:45:26;;;;;;;11.63;6.55;;;;;;;17.97;83.94;100341.53;1722527;83;21396;-59
2021/06/30 02:48:33;;;;;;;11.12;6.92;;;;;;;18.07;83.72;100346.91;1720513;83;21389;-59
2021/06/30 02:51:38;;;;;;;9.43;7.00;;;;;;;18.16;83.47;100339.14;1722680;83;21381;-59
2021/06/30 02:54:45;;;;;;;10.32;6.62;;;;;;;18.24;83.25;100341.63;1720194;83;21900;-59
2021/06/30 02:57:52;;;;;;;8.33;6.55;;;;;;;18.32;83.01;100350.53;1722563;83;21378;-59
2021/06/30 03:00:59;;;;;;;11.05;6.78;;;;;;;18.41;82.73;100351.14;1704488;83;21245;-59
2021/06/30 03:04:05;;;;;;;9.15;6.87;;;;;;;18.49;82.49;100357.78;1723082;83;21354;-58
2021/06/30 03:07:10;;;;;;;8.78;6.47;;;;;;;18.53;82.26;100357.09;1720283;83;21291;-59
2021/06/30 03:10:18;;;;;;;9.15;6.50;;;;;;;18.56;82.17;100364.09;1722655;83;21377;-59
2021/06/30 03:13:23;;;;;;;8.53;6.90;;;;;;;18.59;81.97;100363.63;1718617;83;21287;-60
2021/06/30 03:16:30;;;;;;;13.13;6.60;;;;;;;18.60;81.90;100364.78;1686339;84;21245;-59
2021/06/30 03:19:39;;;;;;;9.78;6.95;;;;;;;18.64;81.85;100374.37;1712627;84;21335;-57
2021/06/30 03:22:46;;;;;;;12.90;7.15;;;;;;;18.68;81.73;100374.77;1718343;83;21295;-58
2021/06/30 03:25:52;;;;;;;9.70;6.92;;;;;;;18.72;81.65;100364.37;1712682;83;21819;-59
2021/06/30 03:29:03;;;;;;;9.50;7.10;;;;;;;18.80;81.65;100367.38;1718233;83;21223;-56
2021/06/30 03:32:06;;;;;;;11.73;6.65;;;;;;;18.84;81.55;100369.45;1713386;83;21397;-58
2021/06/30 03:35:12;;;;;;;9.13;7.33;;;;;;;18.89;81.51;100362.69;1718229;83;21291;-59
2021/06/30 03:38:17;;;;;;;8.00;6.65;;;;;;;18.97;81.44;100371.23;1712797;83;21911;-57
2021/06/30 03:41:23;;;;;;;11.48;6.62;;;;;;;19.04;81.22;100370.07;1718329;83;21247;-59
2021/06/30 03:44:28;;;;;;;8.60;6.55;;;;;;;19.13;80.95;100372.87;1712676;83;21216;-58
2021/06/30 03:47:33;;;;;;;8.03;6.40;;;;;;;19.21;80.62;100368.40;1718256;83;21251;-56
2021/06/30 03:50:39;;;;;;;7.28;5.85;;;;;;;19.30;80.37;100364.25;1712875;83;21345;-58
2021/06/30 03:53:46;;;;;;;7.40;6.28;;;;;;;19.40;79.94;100364.23;1718293;83;21324;-59
2021/06/30 03:56:51;;;;;;;7.12;6.42;;;;;;;19.50;79.50;100366.78;1712946;83;21243;-58
2021/06/30 03:59:59;;;;;;;9.48;6.33;;;;;;;19.61;78.81;100372.07;1718345;83;21196;-59
2021/06/30 04:03:06;;;;;;;7.95;6.50;;;;;;;19.70;78.28;100370.66;1713093;83;21252;-59
2021/06/30 04:06:11;;;;;;;8.70;6.95;;;;;;;19.82;78.06;100371.56;1718367;83;21256;-60
2021/06/30 04:09:16;;;;;;;7.87;6.80;;;;;;;19.93;77.89;100371.58;1713125;83;21433;-60
2021/06/30 04:12:21;;;;;;;8.98;6.80;;;;;;;20.02;77.88;100365.16;1715703;83;22305;-58
2021/06/30 04:15:27;;;;;;;11.75;7.47;;;;;;;20.14;77.75;100371.62;1709753;84;21393;-58
2021/06/30 04:18:35;;;;;;;12.18;7.03;;;;;;;20.23;76.62;100366.03;1714448;83;21276;-58
2021/06/30 04:21:40;;;;;;;9.20;7.25;;;;;;;20.33;75.80;100366.27;1710152;84;21374;-58
2021/06/30 04:24:46;;;;;;;7.62;6.92;;;;;;;20.43;75.33;100366.54;1715013;83;22015;-57
2021/06/30 04:27:52;;;;;;;9.18;6.35;;;;;;;20.53;74.88;100369.02;1692440;83;21342;-57
2021/06/30 04:30:57;;;;;;;9.00;6.45;;;;;;;20.63;74.43;100357.30;1714113;83;21232;-57
2021/06/30 04:34:05;;;;;;;6.67;5.72;;;;;;;20.71;73.27;100359.72;1709166;84;21189;-57
2021/06/30 04:37:11;;;;;;;8.03;6.20;;;;;;;20.77;72.47;100358.77;1714590;83;21271;-57
2021/06/30 04:40:20;;;;;;;7.37;5.53;;;;;;;20.85;72.31;100352.84;1709997;83;21363;-58
2021/06/30 04:43:26;;;;;;;7.08;5.75;;;;;;;20.95;72.42;100358.61;1714832;83;21231;-58
2021/06/30 04:46:32;;;;;;;7.55;6.03;;;;;;;21.08;71.78;100357.54;1710825;83;22085;-58
2021/06/30 04:49:38;;;;;;;6.72;5.90;;;;;;;21.15;71.33;100356.88;1714914;83;21737;-56
2021/06/30 04:52:45;;;;;;;8.45;6.28;;;;;;;21.23;70.97;100357.89;1709693;84;21367;-58
2021/06/30 04:55:51;;;;;;;8.28;6.70;;;;;;;21.30;70.93;100357.19;1714641;83;21744;-55
2021/06/30 04:58:57;;;;;;;8.30;6.92;;;;;;;21.38;70.75;100355.41;1697602;84;21240;-57
2021/06/30 05:02:03;;;;;;;7.97;6.72;;;;;;;21.45;70.95;100354.74;1711307;83;21231;-58
2021/06/30 05:05:11;;;;;;;7.75;6.42;;;;;;;21.53;70.70;100355.75;1680066;85;21252;-57
2021/06/30 05:08:20;;;;;;;8.05;7.15;;;;;;;21.56;70.24;100346.35;1693886;83;21244;-57
2021/06/30 05:11:29;;;;;;;8.13;7.33;;;;;;;21.62;70.13;100346.74;1709958;83;22269;-55
2021/06/30 05:14:38;;;;;;;10.28;7.00;;;;;;;21.73;70.20;100355.59;1693251;82;21293;-56
2021/06/30 05:17:48;;;;;;;7.65;6.85;;;;;;;21.82;70.07;100359.70;1691861;84;21556;-56
2021/06/30 05:20:54;;;;;;;9.23;7.37;;;;;;;21.91;70.49;100362.95;1691307;85;21246;-51
2021/06/30 05:23:59;;;;;;;12.70;6.67;;;;;;;22.00;70.03;100366.47;1684902;85;21225;-51
2021/06/30 05:27:05;;;;;;;8.93;7.12;;;;;;;22.08;69.67;100372.18;1691680;85;21738;-53
2021/06/30 05:30:10;;;;;;;10.40;7.03;;;;;;;22.09;69.37;100372.47;1691870;85;21279;-51
2021/06/30 05:33:17;;;;;;;11.08;6.85;;;;;;;22.13;69.27;100365.31;1678501;85;21233;-51
2021/06/30 05:36:22;;;;;;;10.48;7.03;;;;;;;22.16;68.84;100365.66;1684347;84;21868;-51
2021/06/30 05:39:29;;;;;;;9.35;6.37;;;;;;;22.21;68.86;100365.72;1712253;83;21264;-51
2021/06/30 05:42:38;;;;;;;7.55;6.20;;;;;;;22.25;68.76;100372.22;1710656;82;21224;-53
2021/06/30 05:45:46;;;;;;;8.08;7.12;;;;;;;22.25;68.28;100380.59;1718570;82;21251;-52
2021/06/30 05:48:53;;;;;;;7.03;6.33;;;;;;;22.26;68.17;100385.06;1713916;83;21207;-52
2021/06/30 05:52:00;;;;;;;6.40;5.80;;;;;;;22.27;68.18;100388.12;1684870;85;21259;-51
2021/06/30 05:55:05;;;;;;;7.08;6.37;;;;;;;22.30;68.28;100386.23;1685730;85;21825;-52
2021/06/30 05:58:11;;;;;;;7.60;6.60;;;;;;;22.33;68.17;100380.14;1685269;85;21192;-52
2021/06/30 06:01:17;;;;;;;8.10;6.55;;;;;;;22.39;68.53;100384.73;1685795;85;21558;-53
2021/06/30 06:04:25;;;;;;;8.33;6.00;;;;;;;22.46;68.68;100386.80;1704497;82;21183;-53
2021/06/30 06:07:31;;;;;;;9.13;7.10;;;;;;;22.53;67.74;100383.34;1714932;82;21427;-54
2021/06/30 06:10:39;;;;;;;8.33;6.37;;;;;;;22.59;67.75;100381.77;1712419;82;21273;-53
2021/06/30 06:13:45;;;;;;;7.30;5.83;;;;;;;22.69;67.58;100386.11;1712774;82;21694;-52
2021/06/30 06:16:50;;;;;;;5.72;5.17;;;;;;;22.79;67.66;100391.00;1720126;82;21685;-52
2021/06/30 06:19:59;;;;;;;7.50;4.80;;;;;;;22.88;66.33;100379.72;1720004;82;21209;-51
2021/06/30 06:23:06;;;;;;;6.65;5.55;;;;;;;22.98;65.11;100379.31;1714630;82;21717;-52
2021/06/30 06:26:13;;;;;;;8.10;5.12;;;;;;;23.06;64.34;100380.81;1692811;83;21224;-52
2021/06/30 06:29:18;;;;;;;6.55;5.35;;;;;;;23.12;63.96;100386.22;1694393;83;21207;-50
2021/06/30 06:32:23;;;;;;;6.08;4.60;;;;;;;23.19;64.12;100389.69;1690093;83;21373;-53
2021/06/30 06:35:30;;;;;;;5.97;4.92;;;;;;;23.29;63.59;100380.63;1665299;84;21891;-50
2021/06/30 06:38:39;;;;;;;6.20;4.97;;;;;;;23.42;62.74;100380.26;1687790;83;21807;-51
2021/06/30 06:41:45;;;;;;;6.17;4.97;;;;;;;23.50;62.86;100379.78;1689956;84;21283;-52
2021/06/30 06:44:51;;;;;;;7.47;5.20;;;;;;;23.61;63.45;100394.17;1684147;85;22035;-52
2021/06/30 06:47:58;;;;;;;10.65;7.83;;;;;;;23.70;63.04;100390.38;1716450;83;21210;-50
2021/06/30 06:51:04;;;;;;;10.25;5.58;;;;;;;23.77;62.95;100391.86;1696132;83;21212;-53
2021/06/30 06:54:08;;;;;;;5.00;4.50;;;;;;;23.87;62.50;100390.58;1693951;84;21239;-50
2021/06/30 06:57:13;;;;;;;6.22;4.87;;;;;;;23.98;61.27;100395.22;1689558;82;21813;-52
2021/06/30 07:00:21;;;;;;;6.17;4.80;;;;;;;24.08;59.94;100394.48;1676157;85;21322;-51
2021/06/30 07:03:26;;;;;;;5.28;4.75;;;;;;;24.15;60.12;100400.16;1681478;84;21716;-52
2021/06/30 07:06:32;;;;;;;4.55;3.83;;;;;;;24.21;60.22;100394.92;1695504;84;21239;-54
2021/06/30 07:09:40;;;;;;;5.22;4.17;;;;;;;24.30;59.26;100384.93;1678029;82;21215;-54
2021/06/30 07:12:45;;;;;;;4.75;3.50;;;;;;;24.40;58.33;100387.84;1675906;85;21215;-54
2021/06/30 07:15:50;;;;;;;4.58;3.47;;;;;;;24.49;56.98;100386.77;1702984;81;21806;-51
2021/06/30 07:18:58;;;;;;;4.65;4.00;;;;;;;24.54;56.24;100389.08;1733718;82;21218;-51
2021/06/30 07:22:04;;;;;;;4.65;3.98;;;;;;;24.59;56.28;100384.89;1734312;82;21242;-52
2021/06/30 07:25:19;;;;;;;4.22;3.37;;;;;;;24.66;56.95;100388.36;1734040;82;22261;-53
2021/06/30 07:28:26;;;;;;;3.77;2.90;;;;;;;24.75;56.04;100390.94;1734088;82;21225;-53
2021/06/30 07:31:32;;;;;;;3.75;2.90;;;;;;;24.82;53.42;100394.91;1734169;82;21443;-50
2021/06/30 07:34:38;;;;;;;3.12;2.62;;;;;;;24.85;51.94;100391.57;1722832;82;21236;-50
2021/06/30 07:37:45;;;;;;;5.08;2.62;;;;;;;24.90;51.92;100386.87;1689418;82;21212;-52
2021/06/30 07:40:51;;;;;;;4.42;2.65;;;;;;;24.92;51.42;100389.40;1708617;83;21219;-51
2021/06/30 07:43:56;;;;;;;3.75;2.92;;;;;;;24.94;50.24;100388.00;1690764;83;21225;-50
2021/06/30 07:47:02;;;;;;;3.72;3.20;;;;;;;24.95;50.53;100393.91;1692871;82;21376;-51
2021/06/30 07:50:07;;;;;;;3.22;2.65;;;;;;;24.97;51.25;100379.63;1680268;84;21766;-52
2021/06/30 07:53:13;;;;;;;2.52;2.33;;;;;;;25.00;51.29;100380.49;1698395;84;21214;-51
2021/06/30 07:56:33;;;;;;;4.42;2.90;;;;;;;25.02;50.94;100388.90;1678226;85;21251;-52
2021/06/30 07:59:29;;;;;;;3.05;2.33;;;;;;;25.10;51.07;100390.92;1697785;84;21228;-52
2021/06/30 08:02:36;;;;;;;5.47;3.42;;;;;;;25.23;50.84;100397.45;1726279;82;21210;-52
2021/06/30 08:05:42;;;;;;;2.60;2.20;;;;;;;25.33;50.42;100396.09;1717062;83;21228;-52
2021/06/30 08:08:47;;;;;;;4.12;2.17;;;;;;;25.39;49.56;100391.67;1708553;83;21293;-51
2021/06/30 08:11:56;;;;;;;2.80;2.47;;;;;;;25.46;49.70;100396.49;1648939;84;21204;-51
2021/06/30 08:15:04;;;;;;;4.47;2.67;;;;;;;25.60;49.89;100407.49;1658226;86;22059;-53
2021/06/30 08:18:11;;;;;;;3.92;2.65;;;;;;;25.71;49.52;100407.82;1686433;83;21772;-51
2021/06/30 08:21:20;;;;;;;2.98;2.67;;;;;;;25.81;49.52;100394.39;1692755;84;21661;-53
2021/06/30 08:24:23;;;;;;;7.25;3.02;;;;;;;25.94;49.57;100388.27;1691379;85;21255;-52
2021/06/30 08:27:34;;;;;;;3.35;2.60;;;;;;;26.08;49.26;100386.66;1691588;85;21370;-53
2021/06/30 08:30:42;;;;;;;2.70;2.15;;;;;;;26.19;48.92;100392.57;1712540;82;21411;-53
2021/06/30 08:33:50;;;;;;;5.10;2.58;;;;;;;26.23;48.42;100386.13;1690862;84;21963;-52
2021/06/30 08:37:01;;;;;;;3.98;2.40;;;;;;;26.33;48.70;100381.94;1690645;84;21766;-50
2021/06/30 08:40:09;;;;;;;3.77;2.47;;;;;;;26.40;48.86;100397.92;1690809;84;21735;-51
2021/06/30 08:43:16;;;;;;;2.80;2.30;;;;;;;26.51;48.62;100390.38;1691005;84;21386;-51
2021/06/30 08:46:28;;;;;;;2.42;2.22;;;;;;;26.63;47.87;100376.89;1712445;83;21374;-50
2021/06/30 08:49:35;;;;;;;3.35;2.30;;;;;;;26.69;47.23;100387.02;1731734;81;21275;-52
2021/06/30 08:52:45;;;;;;;2.95;2.37;;;;;;;26.76;47.49;100384.78;1737161;81;21195;-51
2021/06/30 08:55:54;;;;;;;3.62;2.72;;;;;;;26.86;47.46;100384.76;1735892;81;21218;-51
2021/06/30 08:58:59;;;;;;;5.78;2.30;;;;;;;26.98;46.95;100383.06;1755233;81;21203;-50
2021/06/30 09:02:05;;;;;;;4.62;2.37;;;;;;;27.00;46.68;100383.08;1757633;81;21238;-52
2021/06/30 09:05:24;;;;;;;4.60;2.20;;;;;;;27.03;46.23;100389.53;1756869;81;21227;-51
2021/06/30 09:08:20;;;;;;;2.85;1.95;;;;;;;27.14;45.82;100382.77;1701482;83;21208;-50
2021/06/30 09:11:30;;;;;;;5.50;1.98;;;;;;;27.30;45.97;100381.64;1757841;81;21695;-53
2021/06/30 09:14:43;;;;;;;1.80;1.70;;;;;;;27.47;45.44;100381.30;1715503;81;21204;-52
2021/06/30 09:17:49;;;;;;;3.08;1.82;;;;;;;27.63;43.96;100378.70;1716963;83;21441;-52
2021/06/30 09:20:56;;;;;;;2.95;1.90;;;;;;;27.71;42.99;100373.33;1711134;81;21226;-53
2021/06/30 09:24:18;;;;;;;3.30;2.47;;;;;;;27.74;43.84;100384.00;1685594;84;21766;-56
2021/06/30 09:27:23;;;;;;;3.17;1.82;;;;;;;27.81;43.66;100385.92;1711368;84;21589;-53
2021/06/30 09:30:29;;;;;;;3.47;1.85;;;;;;;27.80;42.46;100375.81;1721410;83;21896;-54
2021/06/30 09:33:55;;;;;;;1.87;1.62;;;;;;;27.75;42.62;100369.34;1720108;83;21366;-53
2021/06/30 09:37:05;;;;;;;4.67;1.92;;;;;;;27.81;43.07;100376.07;1721660;83;21228;-56
2021/06/30 09:40:15;;;;;;;4.05;2.27;;;;;;;27.85;43.59;100371.56;1719551;83;21421;-53
2021/06/30 09:43:35;;;;;;;2.77;2.10;;;;;;;27.84;43.34;100364.23;1721661;82;21546;-54
2021/06/30 09:46:41;;;;;;;4.58;2.20;;;;;;;27.86;43.59;100371.83;1737241;82;21722;-53
2021/06/30 09:49:47;;;;;;;1.75;1.62;;;;;;;27.92;43.79;100378.88;1742822;82;21240;-53
2021/06/30 09:52:54;;;;;;;3.17;1.55;;;;;;;28.06;42.58;100375.70;1724096;82;21188;-53
2021/06/30 09:56:01;;;;;;;2.05;1.80;;;;;;;28.24;42.11;100376.44;1722321;83;21213;-52
2021/06/30 09:59:27;;;;;;;2.95;1.90;;;;;;;28.40;40.59;100375.20;1697188;83;21773;-53
2021/06/30 10:02:40;;;;;;;2.45;1.75;;;;;;;28.61;39.87;100383.77;1722694;82;21354;-53
2021/06/30 10:05:47;;;;;;;2.55;1.80;;;;;;;28.74;38.62;100372.69;1719056;83;21358;-50
2021/06/30 10:08:51;;;;;;;4.83;1.95;;;;;;;28.87;39.20;100369.75;1719439;83;21417;-50
2021/06/30 10:12:10;;;;;;;3.17;1.75;;;;;;;29.01;39.63;100369.33;1719383;83;21220;-50
2021/06/30 10:15:18;;;;;;;2.98;1.82;;;;;;;29.00;39.76;100364.84;1719724;83;21769;-50
2021/06/30 10:18:23;;;;;;;4.03;2.08;;;;;;;29.01;40.53;100371.59;1712633;82;21841;-51
2021/06/30 10:21:34;;;;;;;5.75;2.90;;;;;;;28.93;39.35;100365.19;1718869;83;21259;-51
2021/06/30 10:24:40;;;;;;;3.12;1.92;;;;;;;28.84;40.03;100364.71;1713309;83;21231;-52
2021/06/30 10:27:47;;;;;;;2.47;1.92;;;;;;;28.79;40.07;100363.34;1719992;83;21198;-52
2021/06/30 10:30:55;;;;;;;2.70;2.30;;;;;;;28.80;39.92;100359.37;1720186;82;21402;-52
2021/06/30 10:34:05;;;;;;;2.87;2.20;;;;;;;28.89;39.95;100359.03;1728403;82;21249;-52
2021/06/30 10:37:12;;;;;;;2.22;1.90;;;;;;;28.98;40.16;100347.37;1737366;82;21357;-53
2021/06/30 10:40:21;;;;;;;5.95;2.20;;;;;;;29.12;40.07;100353.45;1694577;83;21245;-53
2021/06/30 10:43:27;;;;;;;5.37;2.60;;;;;;;29.22;39.73;100352.50;1725988;81;21398;-53
2021/06/30 10:46:34;;;;;;;2.30;2.00;;;;;;;29.23;40.23;100342.89;1724632;81;21777;-53
2021/06/30 10:49:42;;;;;;;3.20;1.80;;;;;;;29.26;39.28;100346.52;1717910;81;21188;-52
2021/06/30 10:52:48;;;;;;;4.80;1.90;;;;;;;29.16;38.99;100342.42;1726183;83;21577;-53
2021/06/30 10:55:55;;;;;;;2.67;2.00;;;;;;;29.09;39.32;100344.75;1734324;82;21270;-52
2021/06/30 10:59:10;;;;;;;2.95;1.70;;;;;;;28.90;39.64;100343.78;1708203;83;21699;-53
2021/06/30 11:02:21;;;;;;;3.10;2.00;;;;;;;28.73;39.74;100329.30;1705334;83;21180;-53
2021/06/30 11:05:32;;;;;;;3.42;1.72;;;;;;;28.79;40.41;100332.34;1711360;84;21788;-54
2021/06/30 11:08:54;;;;;;;2.85;2.25;;;;;;;29.02;40.33;100320.24;1704449;82;21201;-53
2021/06/30 11:12:04;;;;;;;4.42;1.92;;;;;;;29.26;39.52;100309.03;1719498;81;21236;-54
2021/06/30 11:15:09;;;;;;;2.22;1.80;;;;;;;29.47;38.64;100318.91;1692861;84;21243;-53
2021/06/30 11:18:27;;;;;;;3.52;2.17;;;;;;;29.57;38.72;100313.14;1716283;83;21353;-51
2021/06/30 11:21:54;;;;;;;1.72;1.62;;;;;;;29.98;38.29;100305.25;1711639;83;21215;-47
2021/06/30 11:25:02;;;;;;;2.70;1.87;;;;;;;29.98;38.29;100305.25;1694152;83;21212;-52
2021/06/30 11:28:09;;;;;;;4.97;2.20;;;;;;;29.76;37.76;100309.25;1685104;84;21721;-52
2021/06/30 11:31:32;;;;;;;1.92;1.72;;;;;;;29.76;37.76;100309.25;1690747;85;21236;-53
2021/06/30 11:34:38;;;;;;;5.00;2.25;;;;;;;29.73;38.17;100311.23;1690336;85;21213;-53
2021/06/30 11:37:45;;;;;;;3.85;1.80;;;;;;;29.79;38.17;100308.63;1667650;84;21304;-52
2021/06/30 11:40:57;;;;;;;1.80;1.50;;;;;;;29.89;38.08;100307.05;1663538;85;21598;-52
2021/06/30 11:44:04;;;;;;;;;;;;;;;29.95;37.76;100310.09;1700057;83;21338;-53
2021/06/30 11:47:12;;;;;;;2.40;1.80;;;;;;;29.92;37.77;100307.03;1672965;84;20227;-54
2021/06/30 11:50:21;;;;;;;2.20;1.95;;;;;;;29.91;37.31;100305.34;1684127;85;21260;-52
2021/06/30 11:53:46;;;;;;;1.92;1.67;;;;;;;29.96;36.90;100313.17;1672001;85;21376;-52
2021/06/30 11:56:54;;;;;;;1.85;1.65;;;;;;;29.93;36.45;100306.73;1684958;85;21309;-53
2021/06/30 12:00:16;;;;;;;2.05;1.52;;;;;;;29.88;36.96;100301.16;1703276;84;21393;-52
2021/06/30 12:03:25;;;;;;;3.12;1.80;;;;;;;29.88;36.96;100301.16;1708468;83;21256;-52
2021/06/30 12:06:33;;;;;;;3.05;1.70;;;;;;;29.85;37.11;100317.30;1709238;83;21885;-52
2021/06/30 12:09:44;;;;;;;2.98;2.02;;;;;;;29.83;37.55;100312.52;1685024;85;21781;-52
2021/06/30 12:12:50;;;;;;;2.98;2.20;;;;;;;29.77;36.98;100299.62;1698723;84;21231;-52
2021/06/30 12:15:57;;;;;;;2.60;2.05;;;;;;;29.68;37.92;100291.58;1708556;83;21206;-52
2021/06/30 12:19:03;;;;;;;2.67;2.00;;;;;;;29.73;37.75;100290.06;1706171;83;21245;-52
2021/06/30 12:22:11;;;;;;;2.00;1.70;;;;;;;29.73;37.75;100290.06;1717796;82;21600;-52
2021/06/30 12:25:27;;;;;;;4.65;1.70;;;;;;;29.64;36.93;100290.48;1718255;83;21278;-53
2021/06/30 12:28:31;;;;;;;2.42;1.82;;;;;;;29.57;37.32;100282.10;1700469;83;21541;-54
2021/06/30 12:31:38;;;;;;;3.50;1.98;;;;;;;29.58;37.16;100290.27;1720980;83;21239;-53
2021/06/30 12:34:43;;;;;;;2.72;2.08;;;;;;;29.56;36.72;100278.43;1720134;83;21253;-53
2021/06/30 12:37:50;;;;;;;3.58;2.27;;;;;;;29.53;37.32;100271.13;1718076;83;21856;-52
2021/06/30 12:41:14;;;;;;;3.02;1.90;;;;;;;29.50;37.29;100264.13;1720470;81;21266;-52
2021/06/30 12:44:20;;;;;;;2.20;1.72;;;;;;;29.45;37.88;100272.66;1718194;82;21454;-52
2021/06/30 12:47:27;;;;;;;2.35;1.72;;;;;;;29.45;36.86;100266.20;1722759;83;21736;-52
2021/06/30 12:50:46;;;;;;;4.12;2.08;;;;;;;29.48;36.44;100270.64;1693922;84;21377;-52
2021/06/30 12:53:53;;;;;;;3.40;1.90;;;;;;;29.35;36.42;100268.58;1720289;83;21350;-52
2021/06/30 12:57:15;;;;;;;3.15;1.70;;;;;;;29.29;37.25;100261.89;1719915;83;21425;-52
2021/06/30 13:00:24;;;;;;;2.17;1.60;;;;;;;29.30;37.42;100275.69;1720015;83;21255;-51
2021/06/30 13:03:30;;;;;;;1.90;1.50;;;;;;;29.30;36.67;100267.23;1721663;82;21194;-53
2021/06/30 13:06:40;;;;;;;2.20;1.60;;;;;;;29.19;35.64;100272.14;1718269;83;21370;-52
2021/06/30 13:09:47;;;;;;;3.33;1.67;;;;;;;29.05;36.82;100275.97;1691890;83;21224;-53
2021/06/30 13:12:53;;;;;;;2.83;1.70;;;;;;;28.93;37.54;100278.34;1719589;83;21363;-53
2021/06/30 13:16:19;;;;;;;3.45;1.87;;;;;;;28.85;37.48;100272.80;1719361;83;21912;-53
2021/06/30 13:19:29;;;;;;;3.12;1.70;;;;;;;28.81;38.19;100274.52;1703534;83;21355;-51
2021/06/30 13:22:38;;;;;;;1.97;1.73;;;;;;;28.81;38.50;100271.70;1716585;83;21434;-51
2021/06/30 13:25:56;;;;;;;1.95;1.45;;;;;;;28.83;38.68;100272.81;1713856;83;21867;-52
2021/06/30 13:35:37;;;;;;;1.70;1.60;;;;;;;28.81;38.55;100272.30;1722706;83;21374;-52
2021/06/30 13:38:52;;;;;;;1.70;1.60;;;;;;;28.68;38.89;100274.40;1722165;83;21231;-52
2021/06/30 13:41:54;;;;;;;3.80;1.60;;;;;;;28.60;38.71;100266.59;1721688;83;21908;-52
2021/06/30 13:45:06;;;;;;;1.98;1.60;;;;;;;28.53;39.05;100264.11;1722314;83;21303;-53
2021/06/30 13:48:17;;;;;;;2.60;1.95;;;;;;;28.46;39.20;100272.61;1709467;83;21244;-52
2021/06/30 13:51:24;;;;;;;2.72;1.70;;;;;;;28.36;39.33;100272.69;1721965;83;21800;-52
2021/06/30 13:54:33;;;;;;;2.20;1.67;;;;;;;28.28;39.88;100276.14;1722037;83;21342;-53
2021/06/30 13:57:39;;;;;;;5.50;2.20;;;;;;;28.25;40.66;100273.36;1721770;83;21718;-53
2021/06/30 14:00:45;;;;;;;4.12;2.75;;;;;;;28.31;40.98;100272.73;1719560;83;21754;-54
2021/06/30 14:03:50;;;;;;;7.62;2.80;;;;;;;28.46;41.13;100259.94;1721263;83;21208;-53
2021/06/30 14:06:57;;;;;;;4.85;2.60;;;;;;;28.53;40.35;100261.86;1721958;83;21223;-54
2021/06/30 14:10:03;;;;;;;2.92;1.87;;;;;;;28.49;39.56;100256.00;1721638;83;21791;-53
2021/06/30 14:13:08;;;;;;;3.15;2.00;;;;;;;28.45;39.50;100257.68;1721843;83;21211;-55
2021/06/30 14:16:14;;;;;;;4.85;1.90;;;;;;;28.47;39.43;100257.38;1722616;83;21232;-55
2021/06/30 14:19:23;;;;;;;4.12;1.70;;;;;;;28.53;39.44;100254.25;1722020;83;21207;-55
2021/06/30 14:22:36;;;;;;;2.60;1.90;;;;;;;28.63;39.45;100253.31;1721780;83;21218;-55
2021/06/30 14:25:42;;;;;;;4.03;2.35;;;;;;;28.72;40.03;100252.92;1721441;81;21207;-52
2021/06/30 14:28:52;;;;;;;3.72;2.00;;;;;;;28.75;39.18;100250.91;1691195;84;21243;-54
2021/06/30 14:32:02;;;;;;;4.00;1.80;;;;;;;28.69;38.78;100247.89;1692882;84;21388;-53
2021/06/30 14:35:09;;;;;;;2.50;1.98;;;;;;;28.66;39.18;100242.85;1692729;84;21373;-55
2021/06/30 14:38:15;;;;;;;12.53;9.35;;;;;;;28.65;38.98;100244.00;1693771;84;21874;-54